sensor_id;sensor_type;location;lat;lon;timestamp;P1;durP1;ratioP1;P2;durP2;ratioP2
17842;SDS011;69286;48.222;16.332;2023-05-14T00:02:16;20.33;;;12.30;;
17842;SDS011;69286;48.222;16.332;2023-05-14T00:04:43;22.43;;;13.47;;
17842;SDS011;69286;48.222;16.332;2023-05-14T00:07:10;23.03;;;13.60;;
17842;SDS011;69286;48.222;16.332;2023-05-14T00:09:37;18.13;;;12.47;;
17842;SDS011;69286;48.222;16.332;2023-05-14T00:12:04;20.07;;;13.23;;
17842;SDS011;69286;48.222;16.332;2023-05-14T00:14:32;18.27;;;12.30;;
17842;SDS011;69286;48.222;16.332;2023-05-14T00:16:58;18.63;;;12.43;;
17842;SDS011;69286;48.222;16.332;2023-05-14T00:19:27;18.50;;;11.67;;
17842;SDS011;69286;48.222;16.332;2023-05-14T00:21:54;15.93;;;11.57;;
17842;SDS011;69286;48.222;16.332;2023-05-14T00:24:21;16.73;;;11.93;;
17842;SDS011;69286;48.222;16.332;2023-05-14T00:26:48;16.87;;;12.20;;
17842;SDS011;69286;48.222;16.332;2023-05-14T00:29:14;15.17;;;10.97;;
17842;SDS011;69286;48.222;16.332;2023-05-14T00:31:41;20.27;;;11.97;;
17842;SDS011;69286;48.222;16.332;2023-05-14T00:34:08;16.67;;;11.43;;
17842;SDS011;69286;48.222;16.332;2023-05-14T00:36:37;17.80;;;12.53;;
17842;SDS011;69286;48.222;16.332;2023-05-14T00:39:03;16.57;;;12.33;;
17842;SDS011;69286;48.222;16.332;2023-05-14T00:41:31;17.50;;;11.47;;
17842;SDS011;69286;48.222;16.332;2023-05-14T00:43:58;19.40;;;12.63;;
17842;SDS011;69286;48.222;16.332;2023-05-14T00:46:25;17.77;;;11.80;;
17842;SDS011;69286;48.222;16.332;2023-05-14T00:48:52;17.83;;;11.07;;
17842;SDS011;69286;48.222;16.332;2023-05-14T00:51:20;15.50;;;11.33;;
17842;SDS011;69286;48.222;16.332;2023-05-14T00:53:48;19.17;;;11.73;;
17842;SDS011;69286;48.222;16.332;2023-05-14T00:56:16;19.50;;;11.57;;
17842;SDS011;69286;48.222;16.332;2023-05-14T00:58:44;17.93;;;12.40;;
17842;SDS011;69286;48.222;16.332;2023-05-14T01:01:11;18.27;;;10.87;;
17842;SDS011;69286;48.222;16.332;2023-05-14T01:03:39;18.37;;;11.37;;
17842;SDS011;69286;48.222;16.332;2023-05-14T01:06:08;17.17;;;11.63;;
17842;SDS011;69286;48.222;16.332;2023-05-14T01:08:43;17.73;;;10.80;;
17842;SDS011;69286;48.222;16.332;2023-05-14T01:11:17;15.30;;;10.77;;
17842;SDS011;69286;48.222;16.332;2023-05-14T01:13:49;16.87;;;11.43;;
17842;SDS011;69286;48.222;16.332;2023-05-14T01:16:24;22.87;;;12.63;;
17842;SDS011;69286;48.222;16.332;2023-05-14T01:18:52;18.07;;;12.50;;
17842;SDS011;69286;48.222;16.332;2023-05-14T01:21:32;17.30;;;11.47;;
17842;SDS011;69286;48.222;16.332;2023-05-14T01:24:01;16.47;;;11.27;;
17842;SDS011;69286;48.222;16.332;2023-05-14T01:26:28;21.20;;;12.40;;
17842;SDS011;69286;48.222;16.332;2023-05-14T01:28:57;20.70;;;12.20;;
17842;SDS011;69286;48.222;16.332;2023-05-14T01:31:29;16.80;;;12.17;;
17842;SDS011;69286;48.222;16.332;2023-05-14T01:33:58;19.43;;;12.27;;
17842;SDS011;69286;48.222;16.332;2023-05-14T01:36:29;18.17;;;12.00;;
17842;SDS011;69286;48.222;16.332;2023-05-14T01:38:57;17.10;;;12.60;;
17842;SDS011;69286;48.222;16.332;2023-05-14T01:41:25;19.30;;;12.33;;
17842;SDS011;69286;48.222;16.332;2023-05-14T01:43:53;20.07;;;11.73;;
17842;SDS011;69286;48.222;16.332;2023-05-14T01:46:20;21.37;;;12.67;;
17842;SDS011;69286;48.222;16.332;2023-05-14T01:48:49;20.70;;;12.33;;
17842;SDS011;69286;48.222;16.332;2023-05-14T01:51:16;15.73;;;11.93;;
17842;SDS011;69286;48.222;16.332;2023-05-14T01:53:44;19.03;;;12.43;;
17842;SDS011;69286;48.222;16.332;2023-05-14T01:56:11;19.53;;;13.00;;
17842;SDS011;69286;48.222;16.332;2023-05-14T01:58:38;21.20;;;12.40;;
17842;SDS011;69286;48.222;16.332;2023-05-14T02:01:05;19.60;;;12.87;;
17842;SDS011;69286;48.222;16.332;2023-05-14T02:03:32;18.50;;;12.77;;
17842;SDS011;69286;48.222;16.332;2023-05-14T02:05:59;18.47;;;11.53;;
17842;SDS011;69286;48.222;16.332;2023-05-14T02:08:26;17.67;;;11.77;;
17842;SDS011;69286;48.222;16.332;2023-05-14T02:10:54;19.50;;;12.40;;
17842;SDS011;69286;48.222;16.332;2023-05-14T02:13:21;19.13;;;12.43;;
17842;SDS011;69286;48.222;16.332;2023-05-14T02:15:48;19.23;;;12.37;;
17842;SDS011;69286;48.222;16.332;2023-05-14T02:18:15;20.13;;;12.50;;
17842;SDS011;69286;48.222;16.332;2023-05-14T02:20:42;18.13;;;12.10;;
17842;SDS011;69286;48.222;16.332;2023-05-14T02:23:09;15.23;;;11.57;;
17842;SDS011;69286;48.222;16.332;2023-05-14T02:25:36;17.30;;;12.33;;
17842;SDS011;69286;48.222;16.332;2023-05-14T02:28:04;16.77;;;12.10;;
17842;SDS011;69286;48.222;16.332;2023-05-14T02:30:31;19.43;;;12.17;;
17842;SDS011;69286;48.222;16.332;2023-05-14T02:32:58;13.83;;;10.80;;
17842;SDS011;69286;48.222;16.332;2023-05-14T02:35:25;15.60;;;11.80;;
17842;SDS011;69286;48.222;16.332;2023-05-14T02:37:52;18.87;;;11.30;;
17842;SDS011;69286;48.222;16.332;2023-05-14T02:40:20;13.80;;;11.27;;
17842;SDS011;69286;48.222;16.332;2023-05-14T02:42:47;17.23;;;11.33;;
17842;SDS011;69286;48.222;16.332;2023-05-14T02:45:15;14.17;;;11.23;;
17842;SDS011;69286;48.222;16.332;2023-05-14T02:47:42;15.60;;;11.33;;
17842;SDS011;69286;48.222;16.332;2023-05-14T02:50:10;13.57;;;10.67;;
17842;SDS011;69286;48.222;16.332;2023-05-14T02:52:36;15.80;;;10.83;;
17842;SDS011;69286;48.222;16.332;2023-05-14T02:55:04;18.20;;;11.80;;
17842;SDS011;69286;48.222;16.332;2023-05-14T02:57:31;15.40;;;10.37;;
17842;SDS011;69286;48.222;16.332;2023-05-14T02:59:58;12.77;;;10.50;;
17842;SDS011;69286;48.222;16.332;2023-05-14T03:02:26;13.03;;;10.60;;
17842;SDS011;69286;48.222;16.332;2023-05-14T03:04:53;13.13;;;9.77;;
17842;SDS011;69286;48.222;16.332;2023-05-14T03:07:20;14.33;;;10.63;;
17842;SDS011;69286;48.222;16.332;2023-05-14T03:09:47;16.47;;;10.83;;
17842;SDS011;69286;48.222;16.332;2023-05-14T03:12:14;14.67;;;10.77;;
17842;SDS011;69286;48.222;16.332;2023-05-14T03:14:42;13.63;;;10.57;;
17842;SDS011;69286;48.222;16.332;2023-05-14T03:17:09;14.00;;;10.27;;
17842;SDS011;69286;48.222;16.332;2023-05-14T03:19:37;15.17;;;11.07;;
17842;SDS011;69286;48.222;16.332;2023-05-14T03:22:04;13.27;;;10.20;;
17842;SDS011;69286;48.222;16.332;2023-05-14T03:24:31;14.70;;;10.70;;
17842;SDS011;69286;48.222;16.332;2023-05-14T03:26:58;17.83;;;10.87;;
17842;SDS011;69286;48.222;16.332;2023-05-14T03:29:25;13.33;;;10.73;;
17842;SDS011;69286;48.222;16.332;2023-05-14T03:31:52;14.93;;;10.67;;
17842;SDS011;69286;48.222;16.332;2023-05-14T03:34:19;17.40;;;11.30;;
17842;SDS011;69286;48.222;16.332;2023-05-14T03:36:48;15.50;;;10.90;;
17842;SDS011;69286;48.222;16.332;2023-05-14T03:39:15;15.07;;;11.00;;
17842;SDS011;69286;48.222;16.332;2023-05-14T03:41:43;14.47;;;11.50;;
17842;SDS011;69286;48.222;16.332;2023-05-14T03:44:10;16.63;;;11.50;;
17842;SDS011;69286;48.222;16.332;2023-05-14T03:46:38;16.23;;;11.67;;
17842;SDS011;69286;48.222;16.332;2023-05-14T03:49:05;17.77;;;11.57;;
17842;SDS011;69286;48.222;16.332;2023-05-14T03:51:32;15.47;;;11.00;;
17842;SDS011;69286;48.222;16.332;2023-05-14T03:54:02;15.67;;;10.73;;
17842;SDS011;69286;48.222;16.332;2023-05-14T03:56:30;14.07;;;9.93;;
17842;SDS011;69286;48.222;16.332;2023-05-14T03:58:56;11.17;;;9.47;;
17842;SDS011;69286;48.222;16.332;2023-05-14T04:01:23;13.40;;;9.77;;
17842;SDS011;69286;48.222;16.332;2023-05-14T04:03:50;14.57;;;9.73;;
17842;SDS011;69286;48.222;16.332;2023-05-14T04:06:18;13.10;;;9.53;;
17842;SDS011;69286;48.222;16.332;2023-05-14T04:08:45;11.13;;;9.10;;
17842;SDS011;69286;48.222;16.332;2023-05-14T04:11:13;16.17;;;9.20;;
17842;SDS011;69286;48.222;16.332;2023-05-14T04:13:40;12.10;;;9.27;;
17842;SDS011;69286;48.222;16.332;2023-05-14T04:16:07;13.40;;;9.70;;
17842;SDS011;69286;48.222;16.332;2023-05-14T04:18:34;14.57;;;10.20;;
17842;SDS011;69286;48.222;16.332;2023-05-14T04:21:01;15.77;;;9.93;;
17842;SDS011;69286;48.222;16.332;2023-05-14T04:23:28;12.43;;;9.30;;
17842;SDS011;69286;48.222;16.332;2023-05-14T04:25:55;11.93;;;10.10;;
17842;SDS011;69286;48.222;16.332;2023-05-14T04:28:24;13.83;;;10.50;;
17842;SDS011;69286;48.222;16.332;2023-05-14T04:30:51;12.60;;;10.23;;
17842;SDS011;69286;48.222;16.332;2023-05-14T04:33:18;12.93;;;10.90;;
17842;SDS011;69286;48.222;16.332;2023-05-14T04:35:45;14.77;;;11.17;;
17842;SDS011;69286;48.222;16.332;2023-05-14T04:38:12;16.40;;;10.80;;
17842;SDS011;69286;48.222;16.332;2023-05-14T04:40:39;12.60;;;10.43;;
17842;SDS011;69286;48.222;16.332;2023-05-14T04:43:06;13.03;;;9.93;;
17842;SDS011;69286;48.222;16.332;2023-05-14T04:45:36;11.17;;;9.37;;
17842;SDS011;69286;48.222;16.332;2023-05-14T04:48:03;15.37;;;10.03;;
17842;SDS011;69286;48.222;16.332;2023-05-14T04:50:31;12.57;;;9.73;;
17842;SDS011;69286;48.222;16.332;2023-05-14T04:52:58;12.80;;;9.43;;
17842;SDS011;69286;48.222;16.332;2023-05-14T04:55:27;11.73;;;9.93;;
17842;SDS011;69286;48.222;16.332;2023-05-14T04:57:54;11.10;;;9.10;;
17842;SDS011;69286;48.222;16.332;2023-05-14T05:00:21;10.57;;;9.27;;
17842;SDS011;69286;48.222;16.332;2023-05-14T05:02:49;11.20;;;9.03;;
17842;SDS011;69286;48.222;16.332;2023-05-14T05:05:17;11.27;;;8.77;;
17842;SDS011;69286;48.222;16.332;2023-05-14T05:07:43;12.17;;;8.43;;
17842;SDS011;69286;48.222;16.332;2023-05-14T05:10:10;10.77;;;8.03;;
17842;SDS011;69286;48.222;16.332;2023-05-14T05:12:38;16.10;;;8.60;;
17842;SDS011;69286;48.222;16.332;2023-05-14T05:15:05;14.03;;;8.60;;
17842;SDS011;69286;48.222;16.332;2023-05-14T05:17:33;10.83;;;8.23;;
17842;SDS011;69286;48.222;16.332;2023-05-14T05:20:02;13.33;;;7.97;;
17842;SDS011;69286;48.222;16.332;2023-05-14T05:22:32;10.80;;;8.47;;
17842;SDS011;69286;48.222;16.332;2023-05-14T05:24:59;9.30;;;7.50;;
17842;SDS011;69286;48.222;16.332;2023-05-14T05:27:29;10.93;;;8.23;;
17842;SDS011;69286;48.222;16.332;2023-05-14T05:29:56;10.43;;;8.03;;
17842;SDS011;69286;48.222;16.332;2023-05-14T05:32:23;12.37;;;7.87;;
17842;SDS011;69286;48.222;16.332;2023-05-14T05:34:50;11.07;;;7.70;;
17842;SDS011;69286;48.222;16.332;2023-05-14T05:37:19;11.83;;;7.73;;
17842;SDS011;69286;48.222;16.332;2023-05-14T05:39:46;12.67;;;8.07;;
17842;SDS011;69286;48.222;16.332;2023-05-14T05:42:13;11.77;;;8.03;;
17842;SDS011;69286;48.222;16.332;2023-05-14T05:44:40;10.20;;;7.93;;
17842;SDS011;69286;48.222;16.332;2023-05-14T05:47:07;10.27;;;6.97;;
17842;SDS011;69286;48.222;16.332;2023-05-14T05:49:34;9.60;;;7.57;;
17842;SDS011;69286;48.222;16.332;2023-05-14T05:52:02;9.20;;;6.87;;
17842;SDS011;69286;48.222;16.332;2023-05-14T05:54:30;10.00;;;7.47;;
17842;SDS011;69286;48.222;16.332;2023-05-14T05:56:57;11.83;;;7.20;;
17842;SDS011;69286;48.222;16.332;2023-05-14T05:59:24;10.60;;;7.63;;
17842;SDS011;69286;48.222;16.332;2023-05-14T06:01:51;10.40;;;7.43;;
17842;SDS011;69286;48.222;16.332;2023-05-14T06:04:18;9.70;;;7.70;;
17842;SDS011;69286;48.222;16.332;2023-05-14T06:06:45;11.10;;;7.27;;
17842;SDS011;69286;48.222;16.332;2023-05-14T06:09:12;10.50;;;7.57;;
17842;SDS011;69286;48.222;16.332;2023-05-14T06:11:41;14.43;;;8.37;;
17842;SDS011;69286;48.222;16.332;2023-05-14T06:14:08;18.93;;;8.67;;
17842;SDS011;69286;48.222;16.332;2023-05-14T06:16:35;12.80;;;8.03;;
17842;SDS011;69286;48.222;16.332;2023-05-14T06:19:02;10.93;;;8.37;;
17842;SDS011;69286;48.222;16.332;2023-05-14T06:21:29;11.53;;;8.03;;
17842;SDS011;69286;48.222;16.332;2023-05-14T06:23:56;10.67;;;7.90;;
17842;SDS011;69286;48.222;16.332;2023-05-14T06:26:23;12.63;;;8.33;;
17842;SDS011;69286;48.222;16.332;2023-05-14T06:28:51;8.43;;;6.80;;
17842;SDS011;69286;48.222;16.332;2023-05-14T06:31:18;11.20;;;8.30;;
17842;SDS011;69286;48.222;16.332;2023-05-14T06:33:45;9.47;;;7.43;;
17842;SDS011;69286;48.222;16.332;2023-05-14T06:36:12;11.87;;;9.00;;
17842;SDS011;69286;48.222;16.332;2023-05-14T06:38:39;13.50;;;9.63;;
17842;SDS011;69286;48.222;16.332;2023-05-14T06:41:06;11.33;;;7.53;;
17842;SDS011;69286;48.222;16.332;2023-05-14T06:43:33;13.33;;;8.47;;
17842;SDS011;69286;48.222;16.332;2023-05-14T06:46:01;11.57;;;7.70;;
17842;SDS011;69286;48.222;16.332;2023-05-14T06:48:28;9.20;;;7.47;;
17842;SDS011;69286;48.222;16.332;2023-05-14T06:50:55;12.33;;;8.27;;
17842;SDS011;69286;48.222;16.332;2023-05-14T06:53:22;11.70;;;8.13;;
17842;SDS011;69286;48.222;16.332;2023-05-14T06:55:49;10.97;;;7.83;;
17842;SDS011;69286;48.222;16.332;2023-05-14T06:58:15;10.10;;;7.87;;
17842;SDS011;69286;48.222;16.332;2023-05-14T07:00:42;12.43;;;8.20;;
17842;SDS011;69286;48.222;16.332;2023-05-14T07:03:11;9.37;;;7.37;;
17842;SDS011;69286;48.222;16.332;2023-05-14T07:05:38;8.70;;;7.30;;
17842;SDS011;69286;48.222;16.332;2023-05-14T07:08:05;10.73;;;7.60;;
17842;SDS011;69286;48.222;16.332;2023-05-14T07:10:32;12.07;;;8.30;;
17842;SDS011;69286;48.222;16.332;2023-05-14T07:12:59;11.67;;;8.33;;
17842;SDS011;69286;48.222;16.332;2023-05-14T07:15:27;12.53;;;8.63;;
17842;SDS011;69286;48.222;16.332;2023-05-14T07:17:54;14.73;;;7.87;;
17842;SDS011;69286;48.222;16.332;2023-05-14T07:20:22;11.50;;;8.20;;
17842;SDS011;69286;48.222;16.332;2023-05-14T07:22:50;15.13;;;8.87;;
17842;SDS011;69286;48.222;16.332;2023-05-14T07:25:17;15.33;;;8.57;;
17842;SDS011;69286;48.222;16.332;2023-05-14T07:27:44;11.87;;;8.70;;
17842;SDS011;69286;48.222;16.332;2023-05-14T07:30:11;11.97;;;7.70;;
17842;SDS011;69286;48.222;16.332;2023-05-14T07:32:38;12.20;;;7.67;;
17842;SDS011;69286;48.222;16.332;2023-05-14T07:35:06;14.57;;;8.10;;
17842;SDS011;69286;48.222;16.332;2023-05-14T07:37:35;11.60;;;7.53;;
17842;SDS011;69286;48.222;16.332;2023-05-14T07:40:02;9.90;;;7.73;;
17842;SDS011;69286;48.222;16.332;2023-05-14T07:42:29;8.87;;;7.30;;
17842;SDS011;69286;48.222;16.332;2023-05-14T07:44:56;8.90;;;6.87;;
17842;SDS011;69286;48.222;16.332;2023-05-14T07:47:23;12.03;;;7.73;;
17842;SDS011;69286;48.222;16.332;2023-05-14T07:49:52;10.63;;;7.27;;
17842;SDS011;69286;48.222;16.332;2023-05-14T07:52:20;10.40;;;7.67;;
17842;SDS011;69286;48.222;16.332;2023-05-14T07:54:48;11.47;;;8.20;;
17842;SDS011;69286;48.222;16.332;2023-05-14T07:57:16;10.80;;;7.10;;
17842;SDS011;69286;48.222;16.332;2023-05-14T07:59:42;10.03;;;7.90;;
17842;SDS011;69286;48.222;16.332;2023-05-14T08:02:09;11.20;;;8.13;;
17842;SDS011;69286;48.222;16.332;2023-05-14T08:04:37;9.97;;;7.40;;
17842;SDS011;69286;48.222;16.332;2023-05-14T08:07:04;10.60;;;7.83;;
17842;SDS011;69286;48.222;16.332;2023-05-14T08:09:32;9.07;;;6.63;;
17842;SDS011;69286;48.222;16.332;2023-05-14T08:12:00;8.70;;;6.90;;
17842;SDS011;69286;48.222;16.332;2023-05-14T08:14:27;11.87;;;7.17;;
17842;SDS011;69286;48.222;16.332;2023-05-14T08:16:54;8.57;;;7.10;;
17842;SDS011;69286;48.222;16.332;2023-05-14T08:19:21;9.53;;;7.57;;
17842;SDS011;69286;48.222;16.332;2023-05-14T08:21:48;10.17;;;7.57;;
17842;SDS011;69286;48.222;16.332;2023-05-14T08:24:15;8.00;;;6.73;;
17842;SDS011;69286;48.222;16.332;2023-05-14T08:26:43;12.90;;;7.00;;
17842;SDS011;69286;48.222;16.332;2023-05-14T08:29:11;8.00;;;6.47;;
17842;SDS011;69286;48.222;16.332;2023-05-14T08:31:39;9.67;;;6.37;;
17842;SDS011;69286;48.222;16.332;2023-05-14T08:34:06;11.60;;;7.30;;
17842;SDS011;69286;48.222;16.332;2023-05-14T08:36:33;8.50;;;6.67;;
17842;SDS011;69286;48.222;16.332;2023-05-14T08:39:00;9.47;;;6.63;;
17842;SDS011;69286;48.222;16.332;2023-05-14T08:41:27;9.83;;;6.80;;
17842;SDS011;69286;48.222;16.332;2023-05-14T08:43:56;8.30;;;6.97;;
17842;SDS011;69286;48.222;16.332;2023-05-14T08:46:30;10.50;;;7.57;;
17842;SDS011;69286;48.222;16.332;2023-05-14T08:48:59;9.07;;;6.77;;
17842;SDS011;69286;48.222;16.332;2023-05-14T08:51:34;7.80;;;7.00;;
17842;SDS011;69286;48.222;16.332;2023-05-14T08:54:01;8.03;;;6.90;;
17842;SDS011;69286;48.222;16.332;2023-05-14T08:56:30;11.83;;;7.70;;
17842;SDS011;69286;48.222;16.332;2023-05-14T08:58:58;11.03;;;7.73;;
17842;SDS011;69286;48.222;16.332;2023-05-14T09:01:25;9.70;;;7.50;;
17842;SDS011;69286;48.222;16.332;2023-05-14T09:03:55;10.27;;;8.20;;
17842;SDS011;69286;48.222;16.332;2023-05-14T09:06:23;9.13;;;7.03;;
17842;SDS011;69286;48.222;16.332;2023-05-14T09:08:50;8.37;;;6.37;;
17842;SDS011;69286;48.222;16.332;2023-05-14T09:11:18;11.20;;;7.73;;
17842;SDS011;69286;48.222;16.332;2023-05-14T09:13:45;16.10;;;7.03;;
17842;SDS011;69286;48.222;16.332;2023-05-14T09:16:12;14.33;;;7.83;;
17842;SDS011;69286;48.222;16.332;2023-05-14T09:18:42;7.00;;;6.10;;
17842;SDS011;69286;48.222;16.332;2023-05-14T09:21:13;10.27;;;7.30;;
17842;SDS011;69286;48.222;16.332;2023-05-14T09:23:40;9.67;;;7.13;;
17842;SDS011;69286;48.222;16.332;2023-05-14T09:26:08;11.23;;;7.50;;
17842;SDS011;69286;48.222;16.332;2023-05-14T09:28:38;9.53;;;7.13;;
17842;SDS011;69286;48.222;16.332;2023-05-14T09:31:05;8.03;;;6.80;;
17842;SDS011;69286;48.222;16.332;2023-05-14T09:33:34;12.33;;;7.93;;
17842;SDS011;69286;48.222;16.332;2023-05-14T09:36:01;8.83;;;6.70;;
17842;SDS011;69286;48.222;16.332;2023-05-14T09:38:29;9.53;;;6.73;;
17842;SDS011;69286;48.222;16.332;2023-05-14T09:40:56;8.10;;;6.67;;
17842;SDS011;69286;48.222;16.332;2023-05-14T09:43:23;9.70;;;7.40;;
17842;SDS011;69286;48.222;16.332;2023-05-14T09:45:51;10.90;;;8.10;;
17842;SDS011;69286;48.222;16.332;2023-05-14T09:48:18;11.70;;;8.67;;
17842;SDS011;69286;48.222;16.332;2023-05-14T09:50:46;14.43;;;8.93;;
17842;SDS011;69286;48.222;16.332;2023-05-14T09:53:13;11.27;;;7.20;;
17842;SDS011;69286;48.222;16.332;2023-05-14T09:55:43;11.43;;;7.60;;
17842;SDS011;69286;48.222;16.332;2023-05-14T09:58:10;9.50;;;7.57;;
17842;SDS011;69286;48.222;16.332;2023-05-14T10:00:39;12.00;;;7.73;;
17842;SDS011;69286;48.222;16.332;2023-05-14T10:03:11;12.17;;;7.37;;
17842;SDS011;69286;48.222;16.332;2023-05-14T10:05:39;13.53;;;7.93;;
17842;SDS011;69286;48.222;16.332;2023-05-14T10:08:08;11.53;;;8.30;;
17842;SDS011;69286;48.222;16.332;2023-05-14T10:10:38;12.17;;;7.57;;
17842;SDS011;69286;48.222;16.332;2023-05-14T10:13:08;9.03;;;7.40;;
17842;SDS011;69286;48.222;16.332;2023-05-14T10:15:39;8.83;;;7.23;;
17842;SDS011;69286;48.222;16.332;2023-05-14T10:18:09;9.93;;;7.53;;
17842;SDS011;69286;48.222;16.332;2023-05-14T10:20:37;9.47;;;7.30;;
17842;SDS011;69286;48.222;16.332;2023-05-14T10:23:06;12.43;;;7.97;;
17842;SDS011;69286;48.222;16.332;2023-05-14T10:25:33;8.37;;;7.17;;
17842;SDS011;69286;48.222;16.332;2023-05-14T10:28:00;10.40;;;7.60;;
17842;SDS011;69286;48.222;16.332;2023-05-14T10:30:29;9.77;;;7.23;;
17842;SDS011;69286;48.222;16.332;2023-05-14T10:33:07;10.97;;;7.80;;
17842;SDS011;69286;48.222;16.332;2023-05-14T10:35:50;9.30;;;7.80;;
17842;SDS011;69286;48.222;16.332;2023-05-14T10:38:22;13.10;;;7.47;;
17842;SDS011;69286;48.222;16.332;2023-05-14T10:40:53;9.70;;;7.77;;
17842;SDS011;69286;48.222;16.332;2023-05-14T10:43:22;10.23;;;7.93;;
17842;SDS011;69286;48.222;16.332;2023-05-14T10:45:53;8.90;;;7.50;;
17842;SDS011;69286;48.222;16.332;2023-05-14T10:48:21;12.37;;;7.60;;
17842;SDS011;69286;48.222;16.332;2023-05-14T10:50:48;9.37;;;8.10;;
17842;SDS011;69286;48.222;16.332;2023-05-14T10:53:16;10.50;;;7.83;;
17842;SDS011;69286;48.222;16.332;2023-05-14T10:55:44;9.77;;;7.50;;
17842;SDS011;69286;48.222;16.332;2023-05-14T10:58:11;11.13;;;7.50;;
17842;SDS011;69286;48.222;16.332;2023-05-14T11:00:39;11.63;;;7.93;;
17842;SDS011;69286;48.222;16.332;2023-05-14T11:03:08;12.40;;;8.83;;
17842;SDS011;69286;48.222;16.332;2023-05-14T11:05:37;11.67;;;8.50;;
17842;SDS011;69286;48.222;16.332;2023-05-14T11:08:07;8.83;;;7.67;;
17842;SDS011;69286;48.222;16.332;2023-05-14T11:10:34;15.43;;;8.73;;
17842;SDS011;69286;48.222;16.332;2023-05-14T11:13:02;10.20;;;8.37;;
17842;SDS011;69286;48.222;16.332;2023-05-14T11:15:29;12.30;;;9.07;;
17842;SDS011;69286;48.222;16.332;2023-05-14T11:17:56;11.13;;;8.57;;
17842;SDS011;69286;48.222;16.332;2023-05-14T11:20:25;11.83;;;8.70;;
17842;SDS011;69286;48.222;16.332;2023-05-14T11:22:52;11.83;;;8.60;;
17842;SDS011;69286;48.222;16.332;2023-05-14T11:25:19;12.57;;;9.13;;
17842;SDS011;69286;48.222;16.332;2023-05-14T11:27:49;12.47;;;9.30;;
17842;SDS011;69286;48.222;16.332;2023-05-14T11:30:20;15.90;;;11.00;;
17842;SDS011;69286;48.222;16.332;2023-05-14T11:32:47;14.33;;;9.60;;
17842;SDS011;69286;48.222;16.332;2023-05-14T11:35:15;13.07;;;8.93;;
17842;SDS011;69286;48.222;16.332;2023-05-14T11:37:48;13.60;;;9.20;;
17842;SDS011;69286;48.222;16.332;2023-05-14T11:40:16;11.97;;;9.10;;
17842;SDS011;69286;48.222;16.332;2023-05-14T11:42:43;12.37;;;9.13;;
17842;SDS011;69286;48.222;16.332;2023-05-14T11:45:10;11.47;;;8.70;;
17842;SDS011;69286;48.222;16.332;2023-05-14T11:47:39;10.00;;;8.37;;
17842;SDS011;69286;48.222;16.332;2023-05-14T11:50:06;11.57;;;9.60;;
17842;SDS011;69286;48.222;16.332;2023-05-14T11:52:35;15.77;;;9.77;;
17842;SDS011;69286;48.222;16.332;2023-05-14T11:55:07;12.27;;;8.20;;
17842;SDS011;69286;48.222;16.332;2023-05-14T11:57:36;12.67;;;8.80;;
17842;SDS011;69286;48.222;16.332;2023-05-14T12:00:06;10.37;;;8.47;;
17842;SDS011;69286;48.222;16.332;2023-05-14T12:02:42;13.60;;;8.63;;
17842;SDS011;69286;48.222;16.332;2023-05-14T12:05:11;13.07;;;8.87;;
17842;SDS011;69286;48.222;16.332;2023-05-14T12:07:38;11.20;;;9.03;;
17842;SDS011;69286;48.222;16.332;2023-05-14T12:10:06;12.20;;;9.30;;
17842;SDS011;69286;48.222;16.332;2023-05-14T12:12:34;12.80;;;8.90;;
17842;SDS011;69286;48.222;16.332;2023-05-14T12:15:01;13.77;;;9.13;;
17842;SDS011;69286;48.222;16.332;2023-05-14T12:17:36;11.37;;;8.90;;
17842;SDS011;69286;48.222;16.332;2023-05-14T12:20:05;10.63;;;8.30;;
17842;SDS011;69286;48.222;16.332;2023-05-14T12:22:35;12.00;;;8.43;;
17842;SDS011;69286;48.222;16.332;2023-05-14T12:25:03;13.87;;;8.63;;
17842;SDS011;69286;48.222;16.332;2023-05-14T12:27:35;11.73;;;8.67;;
17842;SDS011;69286;48.222;16.332;2023-05-14T12:30:03;10.20;;;8.50;;
17842;SDS011;69286;48.222;16.332;2023-05-14T12:32:31;14.93;;;8.73;;
17842;SDS011;69286;48.222;16.332;2023-05-14T12:34:59;14.20;;;9.53;;
17842;SDS011;69286;48.222;16.332;2023-05-14T12:37:27;10.87;;;8.97;;
17842;SDS011;69286;48.222;16.332;2023-05-14T12:39:54;9.03;;;7.93;;
17842;SDS011;69286;48.222;16.332;2023-05-14T12:42:21;11.00;;;8.37;;
17842;SDS011;69286;48.222;16.332;2023-05-14T12:44:48;9.00;;;7.83;;
17842;SDS011;69286;48.222;16.332;2023-05-14T12:47:15;10.57;;;8.17;;
17842;SDS011;69286;48.222;16.332;2023-05-14T12:49:42;14.47;;;8.43;;
17842;SDS011;69286;48.222;16.332;2023-05-14T12:52:09;14.00;;;8.80;;
17842;SDS011;69286;48.222;16.332;2023-05-14T12:54:37;12.23;;;8.83;;
17842;SDS011;69286;48.222;16.332;2023-05-14T12:57:07;13.27;;;8.63;;
17842;SDS011;69286;48.222;16.332;2023-05-14T12:59:34;10.90;;;8.67;;
17842;SDS011;69286;48.222;16.332;2023-05-14T13:02:01;10.90;;;8.47;;
17842;SDS011;69286;48.222;16.332;2023-05-14T13:04:28;13.03;;;8.83;;
17842;SDS011;69286;48.222;16.332;2023-05-14T13:06:55;11.90;;;9.07;;
17842;SDS011;69286;48.222;16.332;2023-05-14T13:09:21;11.90;;;7.77;;
17842;SDS011;69286;48.222;16.332;2023-05-14T13:11:50;9.57;;;8.03;;
17842;SDS011;69286;48.222;16.332;2023-05-14T13:14:17;10.73;;;8.03;;
17842;SDS011;69286;48.222;16.332;2023-05-14T13:16:43;9.17;;;7.43;;
17842;SDS011;69286;48.222;16.332;2023-05-14T13:19:10;9.70;;;8.03;;
17842;SDS011;69286;48.222;16.332;2023-05-14T13:21:37;12.20;;;8.23;;
17842;SDS011;69286;48.222;16.332;2023-05-14T13:24:04;10.00;;;8.53;;
17842;SDS011;69286;48.222;16.332;2023-05-14T13:26:34;12.57;;;7.77;;
17842;SDS011;69286;48.222;16.332;2023-05-14T13:29:02;10.07;;;8.17;;
17842;SDS011;69286;48.222;16.332;2023-05-14T13:31:29;15.33;;;9.47;;
17842;SDS011;69286;48.222;16.332;2023-05-14T13:33:56;13.00;;;8.63;;
17842;SDS011;69286;48.222;16.332;2023-05-14T13:36:23;12.67;;;8.47;;
17842;SDS011;69286;48.222;16.332;2023-05-14T13:38:50;11.73;;;8.83;;
17842;SDS011;69286;48.222;16.332;2023-05-14T13:41:17;10.67;;;8.90;;
17842;SDS011;69286;48.222;16.332;2023-05-14T13:43:44;10.10;;;8.23;;
17842;SDS011;69286;48.222;16.332;2023-05-14T13:46:12;10.97;;;8.23;;
17842;SDS011;69286;48.222;16.332;2023-05-14T13:48:39;11.73;;;9.00;;
17842;SDS011;69286;48.222;16.332;2023-05-14T13:51:06;9.87;;;8.43;;
17842;SDS011;69286;48.222;16.332;2023-05-14T13:53:33;13.17;;;8.33;;
17842;SDS011;69286;48.222;16.332;2023-05-14T13:56:00;11.77;;;8.20;;
17842;SDS011;69286;48.222;16.332;2023-05-14T13:58:26;10.53;;;7.83;;
17842;SDS011;69286;48.222;16.332;2023-05-14T14:00:53;11.17;;;8.67;;
17842;SDS011;69286;48.222;16.332;2023-05-14T14:03:22;9.60;;;7.90;;
17842;SDS011;69286;48.222;16.332;2023-05-14T14:05:49;11.50;;;7.80;;
17842;SDS011;69286;48.222;16.332;2023-05-14T14:08:16;11.03;;;8.03;;
17842;SDS011;69286;48.222;16.332;2023-05-14T14:10:43;12.40;;;7.17;;
17842;SDS011;69286;48.222;16.332;2023-05-14T14:13:10;11.80;;;8.07;;
17842;SDS011;69286;48.222;16.332;2023-05-14T14:15:37;9.83;;;7.70;;
17842;SDS011;69286;48.222;16.332;2023-05-14T14:18:03;10.37;;;7.73;;
17842;SDS011;69286;48.222;16.332;2023-05-14T14:20:32;11.93;;;7.90;;
17842;SDS011;69286;48.222;16.332;2023-05-14T14:22:59;11.17;;;7.43;;
17842;SDS011;69286;48.222;16.332;2023-05-14T14:25:26;10.00;;;7.30;;